createdAt,value
2018-08-17T00:00:08.037Z,21.30
2018-08-17T00:02:36.850Z,21.20
2018-08-17T00:05:05.911Z,21.10
2018-08-17T00:07:34.840Z,21.10
2018-08-17T00:10:03.775Z,21.00
2018-08-17T00:12:32.615Z,21.00
2018-08-17T00:15:01.464Z,20.90
2018-08-17T00:17:30.294Z,20.90
2018-08-17T00:19:59.354Z,20.90
2018-08-17T00:22:28.234Z,20.80
2018-08-17T00:24:57.126Z,20.80
2018-08-17T00:27:26.025Z,20.80
2018-08-17T00:29:55.045Z,20.70
2018-08-17T00:32:23.907Z,20.70
2018-08-17T00:34:52.729Z,20.70
2018-08-17T00:37:21.572Z,20.70
2018-08-17T00:39:50.538Z,20.60
2018-08-17T00:42:19.446Z,20.60
2018-08-17T00:44:48.394Z,20.60
2018-08-17T00:47:17.295Z,20.60
2018-08-17T00:49:46.177Z,20.50
2018-08-17T00:52:14.984Z,20.50
2018-08-17T00:54:43.913Z,20.50
2018-08-17T00:57:12.748Z,20.50
2018-08-17T00:59:41.773Z,20.40
2018-08-17T01:02:16.932Z,20.30
2018-08-17T01:04:45.613Z,20.20
2018-08-17T01:07:14.422Z,20.20
2018-08-17T01:09:43.182Z,20.10
2018-08-17T01:12:12.008Z,20.00
2018-08-17T01:14:40.600Z,20.00
2018-08-17T01:17:09.333Z,19.90
2018-08-17T01:19:38.019Z,19.90
2018-08-17T01:22:06.834Z,19.80
2018-08-17T01:24:35.548Z,19.80
2018-08-17T01:27:04.402Z,19.80
2018-08-17T01:29:33.321Z,19.70
2018-08-17T01:32:02.011Z,19.70
2018-08-17T01:34:30.671Z,19.60
2018-08-17T01:36:59.382Z,19.60
2018-08-17T01:39:28.097Z,19.60
2018-08-17T01:41:56.922Z,19.60
2018-08-17T01:44:25.660Z,19.60
2018-08-17T01:46:54.414Z,19.60
2018-08-17T01:49:23.136Z,19.60
2018-08-17T01:51:51.871Z,19.50
2018-08-17T01:54:20.543Z,19.50
2018-08-17T01:56:49.263Z,19.50
2018-08-17T01:59:17.963Z,19.40
2018-08-17T02:01:46.733Z,19.40
2018-08-17T02:04:15.459Z,19.40
2018-08-17T02:06:44.247Z,19.40
2018-08-17T02:09:13.369Z,19.40
2018-08-17T02:11:42.253Z,19.30
2018-08-17T02:14:11.145Z,19.40
2018-08-17T02:16:40.488Z,19.40
2018-08-17T02:19:09.500Z,19.30
2018-08-17T02:21:38.377Z,19.30
2018-08-17T02:24:07.226Z,19.20
2018-08-17T02:26:36.157Z,19.20
2018-08-17T02:29:04.942Z,19.10
2018-08-17T02:31:33.764Z,19.10
2018-08-17T02:34:02.579Z,19.10
2018-08-17T02:36:31.434Z,19.00
2018-08-17T02:39:00.156Z,19.00
2018-08-17T02:41:28.960Z,19.00
2018-08-17T02:43:57.775Z,19.00
2018-08-17T02:46:26.684Z,19.00
2018-08-17T02:48:56.460Z,18.90
2018-08-17T02:51:25.453Z,18.90
2018-08-17T02:53:54.261Z,19.00
2018-08-17T02:56:23.215Z,18.90
2018-08-17T02:58:52.101Z,18.90
2018-08-17T03:01:20.918Z,18.90
2018-08-17T03:03:49.705Z,18.90
2018-08-17T03:06:18.604Z,18.90
2018-08-17T03:08:47.554Z,18.80
2018-08-17T03:11:16.489Z,18.80
2018-08-17T03:13:45.355Z,18.80
2018-08-17T03:16:14.202Z,18.80
2018-08-17T03:18:43.046Z,18.80
2018-08-17T03:21:11.864Z,18.80
2018-08-17T03:23:40.597Z,18.80
2018-08-17T03:26:09.755Z,18.80
2018-08-17T03:28:38.541Z,18.80
2018-08-17T03:31:07.758Z,18.80
2018-08-17T03:33:36.614Z,18.70
2018-08-17T03:36:05.481Z,18.70
2018-08-17T03:38:34.356Z,18.70
2018-08-17T03:41:03.252Z,18.60
2018-08-17T03:43:32.143Z,18.60
2018-08-17T03:46:00.996Z,18.50
2018-08-17T03:48:29.842Z,18.50
2018-08-17T03:50:58.592Z,18.50
2018-08-17T03:53:27.553Z,18.40
2018-08-17T03:55:56.445Z,18.40
2018-08-17T03:58:25.266Z,18.40
2018-08-17T04:00:54.372Z,18.40
2018-08-17T04:03:23.110Z,18.30
2018-08-17T04:05:52.022Z,18.30
2018-08-17T04:08:20.875Z,18.30
2018-08-17T04:10:49.702Z,18.20
2018-08-17T04:13:18.772Z,18.20
2018-08-17T04:15:47.617Z,18.20
2018-08-17T04:18:16.493Z,18.20
2018-08-17T04:20:45.319Z,18.20
2018-08-17T04:23:14.297Z,18.10
2018-08-17T04:25:43.107Z,18.10
2018-08-17T04:28:11.935Z,18.10
2018-08-17T04:30:40.797Z,18.10
2018-08-17T04:33:09.825Z,18.10
2018-08-17T04:35:38.769Z,18.20
2018-08-17T04:38:07.702Z,18.10
2018-08-17T04:40:36.540Z,18.20
2018-08-17T04:43:05.394Z,18.20
2018-08-17T04:45:34.108Z,18.30
2018-08-17T04:48:02.931Z,18.30
2018-08-17T04:50:31.754Z,18.40
2018-08-17T04:53:00.570Z,18.50
2018-08-17T04:55:29.375Z,18.50
2018-08-17T04:57:58.114Z,18.50
2018-08-17T05:00:26.903Z,18.60
2018-08-17T05:02:55.725Z,18.60
2018-08-17T05:05:24.412Z,18.70
2018-08-17T05:07:53.188Z,18.80
2018-08-17T05:10:21.988Z,18.90
2018-08-17T05:12:50.825Z,18.90
2018-08-17T05:15:19.719Z,19.00
2018-08-17T05:17:48.518Z,19.10
2018-08-17T05:20:17.308Z,19.20
2018-08-17T05:22:46.165Z,19.20
2018-08-17T05:25:15.106Z,19.20
2018-08-17T05:27:44.006Z,19.20
2018-08-17T05:30:12.968Z,19.20
2018-08-17T05:32:41.805Z,19.20
2018-08-17T05:35:10.942Z,19.30
2018-08-17T05:37:39.753Z,19.30
2018-08-17T05:40:09.426Z,19.30
2018-08-17T05:42:38.669Z,19.30
2018-08-17T05:45:08.449Z,19.30
2018-08-17T05:47:37.362Z,19.30
2018-08-17T05:50:07.378Z,19.30
2018-08-17T05:52:36.907Z,19.30
2018-08-17T05:55:06.063Z,19.30
2018-08-17T05:57:35.336Z,19.30
2018-08-17T06:00:05.288Z,19.40
2018-08-17T06:02:34.087Z,19.40
2018-08-17T06:05:03.056Z,19.40
2018-08-17T06:07:32.031Z,19.30
2018-08-17T06:10:00.896Z,19.30
2018-08-17T06:12:29.825Z,19.30
2018-08-17T06:14:58.726Z,19.20
2018-08-17T06:17:27.647Z,19.20
2018-08-17T06:19:56.687Z,19.20
2018-08-17T06:22:25.450Z,19.20
2018-08-17T06:24:54.408Z,19.20
2018-08-17T06:27:23.546Z,19.30
2018-08-17T06:29:52.525Z,19.40
2018-08-17T06:32:21.468Z,19.40
2018-08-17T06:34:50.478Z,19.50
2018-08-17T06:37:19.423Z,19.50
2018-08-17T06:39:48.260Z,19.50
2018-08-17T06:42:17.188Z,19.60
2018-08-17T06:44:46.784Z,19.60
2018-08-17T06:47:15.940Z,19.70
2018-08-17T06:49:45.089Z,19.70
2018-08-17T06:52:14.079Z,19.70
2018-08-17T06:54:43.178Z,19.70
2018-08-17T06:57:12.152Z,19.80
2018-08-17T06:59:41.129Z,19.80
2018-08-17T07:02:10.133Z,19.80
2018-08-17T07:04:39.144Z,19.90
2018-08-17T07:07:08.040Z,19.80
2018-08-17T07:09:37.084Z,19.90
2018-08-17T07:12:05.926Z,19.90
2018-08-17T07:14:35.761Z,20.00
2018-08-17T07:17:04.608Z,20.00
2018-08-17T07:19:33.643Z,20.00
2018-08-17T07:22:02.571Z,20.00
2018-08-17T07:24:31.638Z,20.00
2018-08-17T07:27:00.675Z,20.10
2018-08-17T07:29:29.873Z,20.10
2018-08-17T07:31:59.875Z,20.20
2018-08-17T07:34:28.772Z,20.20
2018-08-17T07:36:57.736Z,20.30
2018-08-17T07:39:26.895Z,20.50
2018-08-17T07:41:55.928Z,20.50
2018-08-17T07:44:24.848Z,20.60
2018-08-17T07:46:53.677Z,20.60
2018-08-17T07:49:22.609Z,20.70
2018-08-17T07:51:51.516Z,20.80
2018-08-17T07:54:20.442Z,20.90
2018-08-17T07:56:49.236Z,21.10
2018-08-17T07:59:18.078Z,21.30
2018-08-17T08:01:46.854Z,21.50
2018-08-17T08:04:15.896Z,21.60
2018-08-17T08:06:44.973Z,21.80
2018-08-17T08:09:13.880Z,21.90
2018-08-17T08:11:42.963Z,21.90
2018-08-17T08:14:12.310Z,21.90
2018-08-17T08:16:41.352Z,22.10
2018-08-17T08:19:13.835Z,22.30
2018-08-17T08:21:47.457Z,22.40
2018-08-17T08:24:17.117Z,22.40
2018-08-17T08:26:46.262Z,22.60
2018-08-17T08:29:15.336Z,22.70
2018-08-17T08:31:44.461Z,22.90
2018-08-17T08:34:13.732Z,22.90
2018-08-17T08:36:42.760Z,22.90
2018-08-17T08:39:13.460Z,22.70
2018-08-17T08:41:42.460Z,22.50
2018-08-17T08:44:11.617Z,22.40
2018-08-17T08:46:41.386Z,22.20
2018-08-17T08:49:10.605Z,21.90
2018-08-17T08:51:39.800Z,21.80
2018-08-17T08:54:08.767Z,21.70
2018-08-17T08:56:38.102Z,21.70
2018-08-17T08:59:07.277Z,21.50
2018-08-17T09:01:36.288Z,21.20
2018-08-17T09:04:05.434Z,21.00
2018-08-17T09:06:34.506Z,20.90
2018-08-17T09:09:03.868Z,20.70
2018-08-17T09:11:32.794Z,20.70
2018-08-17T09:14:01.760Z,20.60
2018-08-17T09:16:30.621Z,20.70
2018-08-17T09:18:59.633Z,20.70
2018-08-17T09:21:28.517Z,20.80
2018-08-17T09:23:57.459Z,20.90
2018-08-17T09:26:26.484Z,20.90
2018-08-17T09:28:55.663Z,20.80
2018-08-17T09:31:24.842Z,20.60
2018-08-17T09:33:53.732Z,20.70
2018-08-17T09:36:22.744Z,20.80
2018-08-17T09:38:51.685Z,20.90
2018-08-17T09:41:20.747Z,20.90
2018-08-17T09:43:49.679Z,21.00
2018-08-17T09:46:18.731Z,21.10
2018-08-17T09:48:47.618Z,21.40
2018-08-17T09:51:16.607Z,21.80
2018-08-17T09:53:45.579Z,22.10
2018-08-17T09:56:14.587Z,22.30
2018-08-17T09:58:43.549Z,22.20
2018-08-17T10:01:18.031Z,22.50
2018-08-17T10:03:52.132Z,23.10
2018-08-17T10:06:26.436Z,23.30
2018-08-17T10:09:00.867Z,23.60
2018-08-17T10:11:30.113Z,23.60
2018-08-17T10:13:59.140Z,23.70
2018-08-17T10:16:27.989Z,23.30
2018-08-17T10:18:56.761Z,23.00
2018-08-17T10:21:26.034Z,22.90
2018-08-17T10:23:54.564Z,22.90
2018-08-17T10:26:24.068Z,22.90
2018-08-17T10:28:53.206Z,22.80
2018-08-17T10:31:22.495Z,22.50
2018-08-17T10:33:51.331Z,22.40
2018-08-17T10:36:20.368Z,22.40
2018-08-17T10:38:49.221Z,22.30
2018-08-17T10:41:18.256Z,22.20
2018-08-17T10:43:47.147Z,22.30
2018-08-17T10:46:16.573Z,22.50
2018-08-17T10:48:45.639Z,22.90
2018-08-17T10:51:14.587Z,22.80
2018-08-17T10:53:46.196Z,22.20
2018-08-17T10:56:15.255Z,22.00
2018-08-17T10:58:44.152Z,21.40
2018-08-17T11:01:13.398Z,21.30
2018-08-17T11:03:42.534Z,21.40
2018-08-17T11:06:11.475Z,21.40
2018-08-17T11:08:40.896Z,21.30
2018-08-17T11:11:09.994Z,21.40
2018-08-17T11:13:38.939Z,21.90
2018-08-17T11:16:07.914Z,22.80
2018-08-17T11:18:36.724Z,23.70
2018-08-17T11:21:05.590Z,23.90
2018-08-17T11:23:34.426Z,23.70
2018-08-17T11:26:03.678Z,22.70
2018-08-17T11:28:34.174Z,22.60
2018-08-17T11:31:03.395Z,22.80
2018-08-17T11:33:32.279Z,22.70
2018-08-17T11:36:01.361Z,22.90
2018-08-17T11:38:30.370Z,23.40
2018-08-17T11:40:59.421Z,23.60
2018-08-17T11:43:28.406Z,23.20
2018-08-17T11:45:57.375Z,23.00
2018-08-17T11:48:31.495Z,23.00
2018-08-17T11:51:00.593Z,23.00
2018-08-17T11:53:29.646Z,22.90
2018-08-17T11:55:58.782Z,22.70
2018-08-17T11:58:27.851Z,22.70
2018-08-17T12:00:56.922Z,22.30
2018-08-17T12:03:26.020Z,21.90
2018-08-17T12:05:54.912Z,21.90
2018-08-17T12:08:23.908Z,21.80
2018-08-17T12:11:03.229Z,21.60
2018-08-17T12:13:32.192Z,21.60
2018-08-17T12:16:01.046Z,21.60
2018-08-17T12:18:30.003Z,21.50
2018-08-17T12:20:59.170Z,21.50
2018-08-17T12:23:28.330Z,21.50
2018-08-17T12:25:58.435Z,21.40
2018-08-17T12:28:29.661Z,21.30
2018-08-17T12:30:59.245Z,21.20
2018-08-17T12:33:28.397Z,21.10
2018-08-17T12:35:57.334Z,21.10
2018-08-17T12:38:26.247Z,21.00
2018-08-17T12:40:56.369Z,21.00
2018-08-17T12:43:31.626Z,21.10
2018-08-17T12:46:00.559Z,21.20
2018-08-17T12:48:29.528Z,21.20
2018-08-17T12:51:03.437Z,21.50
2018-08-17T12:53:32.443Z,21.80
2018-08-17T12:56:01.603Z,21.90
2018-08-17T12:58:30.481Z,21.80
2018-08-17T13:00:59.319Z,21.80
2018-08-17T13:03:28.279Z,21.80
2018-08-17T13:05:57.275Z,21.70
2018-08-17T13:08:26.469Z,21.70
2018-08-17T13:10:58.729Z,21.70
2018-08-17T13:13:27.621Z,21.80
2018-08-17T13:16:01.677Z,22.00
2018-08-17T13:18:33.290Z,22.10
2018-08-17T13:21:02.408Z,22.00
2018-08-17T13:23:31.410Z,21.90
2018-08-17T13:26:00.234Z,22.00
2018-08-17T13:28:29.429Z,21.90
2018-08-17T13:30:58.514Z,21.90
2018-08-17T13:33:27.586Z,21.90
2018-08-17T13:35:56.558Z,21.80
2018-08-17T13:38:25.454Z,21.90
2018-08-17T13:40:54.287Z,22.00
2018-08-17T13:43:23.228Z,22.00
2018-08-17T13:45:52.161Z,21.90
2018-08-17T13:48:21.058Z,22.10
2018-08-17T13:50:50.015Z,22.00
2018-08-17T13:53:19.122Z,22.00
2018-08-17T13:55:48.125Z,22.00
2018-08-17T13:58:17.028Z,22.00
2018-08-17T14:00:46.085Z,22.30
2018-08-17T14:03:14.911Z,22.70
2018-08-17T14:05:43.823Z,22.70
2018-08-17T14:08:12.952Z,22.60
2018-08-17T14:10:41.709Z,22.70
2018-08-17T14:13:10.620Z,22.70
2018-08-17T14:15:39.860Z,22.80
2018-08-17T14:18:09.062Z,22.50
2018-08-17T14:20:38.144Z,22.40
2018-08-17T14:23:07.044Z,22.40
2018-08-17T14:25:35.913Z,22.90
2018-08-17T14:28:05.187Z,23.30
2018-08-17T14:30:34.067Z,23.70
2018-08-17T14:33:02.911Z,23.80
2018-08-17T14:35:31.771Z,24.10
2018-08-17T14:38:00.724Z,24.00
2018-08-17T14:40:29.883Z,23.80
2018-08-17T14:42:58.767Z,24.10
2018-08-17T14:45:34.449Z,24.40
2018-08-17T14:48:03.636Z,24.20
2018-08-17T14:50:32.578Z,23.70
2018-08-17T14:53:01.615Z,23.70
2018-08-17T14:55:30.517Z,23.50
2018-08-17T14:57:59.410Z,23.70
2018-08-17T15:00:28.509Z,23.40
2018-08-17T15:02:57.319Z,23.60
2018-08-17T15:05:26.391Z,24.00
2018-08-17T15:07:55.487Z,24.90
2018-08-17T15:10:24.627Z,25.50
2018-08-17T15:12:53.636Z,25.50
2018-08-17T15:15:22.708Z,25.70
2018-08-17T15:17:51.745Z,26.40
2018-08-17T15:20:20.753Z,26.40
2018-08-17T15:22:49.568Z,26.10
2018-08-17T15:25:18.581Z,26.60
2018-08-17T15:27:47.444Z,26.60
2018-08-17T15:30:16.400Z,26.10
2018-08-17T15:32:45.348Z,25.60
2018-08-17T15:35:14.374Z,25.50
2018-08-17T15:37:43.341Z,25.60
2018-08-17T15:40:13.083Z,26.30
2018-08-17T15:42:42.393Z,27.20
2018-08-17T15:45:11.709Z,28.10
2018-08-17T15:47:40.555Z,27.50
2018-08-17T15:50:13.214Z,26.90
2018-08-17T15:52:42.484Z,25.90
2018-08-17T15:55:11.512Z,24.90
2018-08-17T15:57:40.722Z,24.20
2018-08-17T16:00:11.917Z,23.80
2018-08-17T16:02:40.959Z,23.40
2018-08-17T16:05:10.033Z,23.40
2018-08-17T16:07:39.038Z,23.50
2018-08-17T16:10:09.998Z,23.70
2018-08-17T16:12:39.162Z,23.80
2018-08-17T16:15:09.060Z,23.80
2018-08-17T16:17:38.303Z,23.70
2018-08-17T16:20:08.744Z,23.50
2018-08-17T16:22:37.594Z,23.40
2018-08-17T16:25:07.291Z,23.50
2018-08-17T16:27:36.207Z,23.90
2018-08-17T16:30:06.455Z,25.40
2018-08-17T16:32:35.301Z,26.90
2018-08-17T16:35:04.720Z,28.30
2018-08-17T16:37:33.659Z,29.10
2018-08-17T16:40:02.449Z,29.60
2018-08-17T16:42:34.086Z,30.50
2018-08-17T16:45:03.041Z,30.60
2018-08-17T16:47:31.974Z,30.10
2018-08-17T16:50:00.961Z,29.70
2018-08-17T16:52:30.034Z,29.00
2018-08-17T16:54:58.896Z,27.70
2018-08-17T16:57:27.695Z,26.80
2018-08-17T16:59:56.684Z,25.80
2018-08-17T17:02:25.575Z,25.00
2018-08-17T17:04:54.475Z,24.40
2018-08-17T17:07:28.301Z,24.00
2018-08-17T17:09:57.315Z,23.70
2018-08-17T17:12:26.125Z,23.60
2018-08-17T17:15:03.182Z,23.50
2018-08-17T17:17:32.253Z,23.50
2018-08-17T17:20:01.073Z,23.40
2018-08-17T17:22:29.908Z,23.10
2018-08-17T17:25:04.811Z,22.90
2018-08-17T17:27:33.633Z,22.90
2018-08-17T17:30:02.511Z,22.90
2018-08-17T17:32:31.270Z,22.90
2018-08-17T17:35:00.019Z,23.00
2018-08-17T17:37:28.823Z,22.80
2018-08-17T17:39:57.811Z,22.70
2018-08-17T17:42:26.669Z,22.70
2018-08-17T17:44:55.530Z,22.70
2018-08-17T17:47:24.502Z,22.60
2018-08-17T17:49:53.555Z,22.60
2018-08-17T17:52:22.362Z,22.50
2018-08-17T17:54:51.192Z,22.50
2018-08-17T17:57:20.244Z,22.50
2018-08-17T17:59:53.208Z,22.30
2018-08-17T18:02:22.376Z,22.20
2018-08-17T18:04:51.298Z,22.20
2018-08-17T18:07:20.038Z,22.10
2018-08-17T18:09:48.808Z,22.10
2018-08-17T18:12:17.678Z,22.10
2018-08-17T18:14:46.538Z,22.00
2018-08-17T18:17:15.439Z,22.00
2018-08-17T18:19:44.304Z,22.00
2018-08-17T18:22:18.339Z,22.00
2018-08-17T18:24:47.181Z,22.00
2018-08-17T18:27:15.925Z,22.00
2018-08-17T18:29:44.694Z,21.90
2018-08-17T18:32:13.521Z,21.80
2018-08-17T18:34:42.331Z,21.80
2018-08-17T18:37:11.359Z,21.70
2018-08-17T18:39:40.148Z,21.60
2018-08-17T18:42:09.074Z,21.50
2018-08-17T18:44:37.885Z,21.50
2018-08-17T18:47:06.702Z,21.50
2018-08-17T18:49:35.483Z,21.40
2018-08-17T18:52:04.495Z,21.40
2018-08-17T18:54:33.479Z,21.30
2018-08-17T18:57:02.417Z,21.30
2018-08-17T18:59:31.197Z,21.20
2018-08-17T19:02:00.263Z,21.20
2018-08-17T19:04:29.225Z,21.20
2018-08-17T19:06:58.223Z,21.10
2018-08-17T19:09:26.994Z,21.00
2018-08-17T19:11:55.835Z,20.90
2018-08-17T19:14:24.704Z,20.90
2018-08-17T19:16:53.513Z,20.80
2018-08-17T19:19:22.327Z,20.80
2018-08-17T19:21:51.297Z,20.70
2018-08-17T19:24:20.158Z,20.70
2018-08-17T19:26:48.971Z,20.60
2018-08-17T19:29:17.937Z,20.60
2018-08-17T19:31:56.001Z,20.50
2018-08-17T19:34:27.766Z,20.50
2018-08-17T19:36:56.665Z,20.50
2018-08-17T19:39:30.712Z,20.50
2018-08-17T19:42:00.168Z,20.50
2018-08-17T19:44:28.983Z,20.40
2018-08-17T19:46:57.762Z,20.30
2018-08-17T19:49:26.553Z,20.20
2018-08-17T19:51:55.533Z,20.20
2018-08-17T19:54:24.306Z,20.10
2018-08-17T19:56:53.165Z,20.10
2018-08-17T19:59:21.911Z,20.00
2018-08-17T20:01:50.697Z,20.00
2018-08-17T20:04:19.585Z,19.90
2018-08-17T20:06:48.456Z,19.80
2018-08-17T20:09:17.349Z,19.80
2018-08-17T20:11:46.188Z,19.80
2018-08-17T20:14:15.036Z,19.80
2018-08-17T20:16:43.798Z,19.70
2018-08-17T20:19:12.797Z,19.70
2018-08-17T20:21:41.693Z,19.60
2018-08-17T20:24:10.466Z,19.60
2018-08-17T20:26:39.614Z,19.50
2018-08-17T20:29:08.126Z,19.50
2018-08-17T20:31:43.413Z,19.50
2018-08-17T20:34:12.432Z,19.50
2018-08-17T20:36:41.649Z,19.40
2018-08-17T20:39:12.231Z,19.40
2018-08-17T20:41:41.213Z,19.40
2018-08-17T20:44:10.166Z,19.30
2018-08-17T20:46:38.990Z,19.30
2018-08-17T20:49:07.746Z,19.20
2018-08-17T20:51:43.422Z,19.20
2018-08-17T20:54:12.156Z,19.10
2018-08-17T20:56:41.146Z,19.00
2018-08-17T20:59:09.954Z,18.90
2018-08-17T21:01:38.793Z,18.80
2018-08-17T21:04:07.624Z,18.70
2018-08-17T21:06:36.435Z,18.70
2018-08-17T21:09:07.272Z,18.60
2018-08-17T21:11:36.344Z,18.50
2018-08-17T21:14:05.099Z,18.50
2018-08-17T21:16:34.037Z,18.40
2018-08-17T21:19:02.845Z,18.30
2018-08-17T21:21:31.692Z,18.20
2018-08-17T21:24:00.440Z,18.10
2018-08-17T21:26:29.265Z,18.10
2018-08-17T21:28:58.207Z,18.00
2018-08-17T21:31:26.998Z,18.00
2018-08-17T21:33:56.064Z,17.90
2018-08-17T21:36:24.838Z,17.80
2018-08-17T21:39:10.415Z,17.80
2018-08-17T21:41:40.777Z,17.70
2018-08-17T21:44:11.804Z,17.70
2018-08-17T21:46:43.677Z,17.70
2018-08-17T21:49:12.455Z,17.60
2018-08-17T21:51:42.010Z,17.50
2018-08-17T21:54:11.798Z,17.50
2018-08-17T21:56:40.576Z,17.40
2018-08-17T21:59:09.405Z,17.40
2018-08-17T22:01:38.178Z,17.40
2018-08-17T22:04:07.046Z,17.30
2018-08-17T22:06:35.974Z,17.30
2018-08-17T22:09:06.242Z,17.20
2018-08-17T22:11:35.855Z,17.20
2018-08-17T22:14:05.195Z,17.20
2018-08-17T22:16:33.954Z,17.10
2018-08-17T22:19:02.765Z,17.10
2018-08-17T22:21:31.748Z,17.10
2018-08-17T22:24:00.643Z,17.00
2018-08-17T22:26:29.345Z,17.00
2018-08-17T22:28:58.178Z,17.00
2018-08-17T22:31:43.381Z,16.90
2018-08-17T22:34:12.393Z,16.90
2018-08-17T22:36:41.335Z,16.90
2018-08-17T22:39:10.168Z,16.80
2018-08-17T22:41:39.058Z,16.80
2018-08-17T22:44:12.166Z,16.70
2018-08-17T22:46:41.828Z,16.70
2018-08-17T22:49:10.676Z,16.80
2018-08-17T22:51:39.498Z,16.90
2018-08-17T22:54:08.452Z,17.00
2018-08-17T22:56:37.728Z,17.00
2018-08-17T22:59:06.533Z,17.00
2018-08-17T23:01:35.425Z,17.00
2018-08-17T23:04:04.415Z,17.00
2018-08-17T23:06:33.270Z,16.90
2018-08-17T23:09:02.017Z,16.80
2018-08-17T23:11:34.066Z,16.80
2018-08-17T23:14:08.065Z,16.70
2018-08-17T23:16:36.844Z,16.70
2018-08-17T23:19:05.709Z,16.60
2018-08-17T23:21:34.462Z,16.60
2018-08-17T23:24:03.260Z,16.60
2018-08-17T23:26:32.158Z,16.60
2018-08-17T23:29:01.070Z,16.50
2018-08-17T23:31:29.841Z,16.50
2018-08-17T23:33:58.832Z,16.40
2018-08-17T23:36:34.263Z,16.40
2018-08-17T23:39:03.516Z,16.40
2018-08-17T23:41:33.223Z,16.40
2018-08-17T23:44:02.027Z,16.30
2018-08-17T23:46:30.756Z,16.30
2018-08-17T23:48:59.585Z,16.20
2018-08-17T23:51:28.372Z,16.30
2018-08-17T23:53:57.231Z,16.30
2018-08-17T23:56:26.089Z,16.30
2018-08-17T23:58:54.917Z,16.30
